Time;durP1;ratioP1;P1;durP2;ratioP2;P2;SDS_P1;SDS_P2;PMS_P1;PMS_P2;Temp;Humidity;BMP_temperature;BMP_pressure;BME280_temperature;BME280_humidity;BME280_pressure;Samples;Min_cycle;Max_cycle;Signal;HPM_P1;HPM_P2
2022/03/25 00:00:47;;;;;;;18.75;7.88;;;4.30;99.90;;;;;;5050501;28;20075;-78
2022/03/25 00:03:13;;;;;;;23.15;8.38;;;4.20;99.90;;;;;;5064705;28;20531;-78
2022/03/25 00:05:39;;;;;;;22.17;8.70;;;4.10;99.90;;;;;;5064133;28;20021;-78
2022/03/25 00:08:05;;;;;;;21.30;9.35;;;4.00;99.90;;;;;;5048268;28;20029;-79
2022/03/25 00:10:30;;;;;;;30.20;10.60;;;4.00;99.90;;;;;;5048692;28;20518;-78
2022/03/25 00:12:56;;;;;;;21.52;8.13;;;4.00;99.90;;;;;;5047614;28;20052;-78
2022/03/25 00:15:22;;;;;;;20.70;9.35;;;4.00;99.90;;;;;;5048699;28;20029;-78
2022/03/25 00:17:48;;;;;;;22.63;9.30;;;3.90;99.90;;;;;;5048898;28;20029;-78
2022/03/25 00:20:13;;;;;;;20.15;8.35;;;3.90;99.90;;;;;;5047557;28;20025;-79
2022/03/25 00:22:39;;;;;;;23.20;8.98;;;3.90;99.90;;;;;;5048477;28;20029;-79
2022/03/25 00:25:06;;;;;;;19.25;8.77;;;4.00;99.90;;;;;;5047355;28;20071;-78
2022/03/25 00:27:35;;;;;;;20.60;9.15;;;4.00;99.90;;;;;;5063719;28;20057;-78
2022/03/25 00:30:02;;;;;;;20.02;8.50;;;4.10;99.90;;;;;;5063575;28;20021;-79
2022/03/25 00:32:27;;;;;;;21.08;8.40;;;4.10;99.90;;;;;;5048231;28;20052;-78
2022/03/25 00:34:53;;;;;;;22.55;8.88;;;4.10;99.90;;;;;;5047638;28;20490;-78
2022/03/25 00:37:19;;;;;;;22.02;9.13;;;4.10;99.90;;;;;;5062251;28;20044;-78
2022/03/25 00:39:45;;;;;;;20.08;8.23;;;4.10;99.90;;;;;;5049113;28;20025;-79
2022/03/25 00:42:13;;;;;;;22.08;8.30;;;4.00;99.90;;;;;;5048478;28;20389;-78
2022/03/25 00:44:40;;;;;;;28.65;10.45;;;3.90;99.90;;;;;;5045424;28;20017;-78
2022/03/25 00:47:05;;;;;;;22.38;8.75;;;3.80;99.90;;;;;;5061392;28;20059;-78
2022/03/25 00:49:32;;;;;;;23.45;9.98;;;3.70;99.90;;;;;;5045428;28;20059;-78
2022/03/25 00:51:58;;;;;;;19.90;8.35;;;3.60;99.90;;;;;;5046517;28;20029;-78
2022/03/25 00:54:24;;;;;;;25.80;9.23;;;3.40;99.90;;;;;;5046312;28;20167;-79
2022/03/25 00:56:50;;;;;;;20.13;8.27;;;3.30;99.90;;;;;;5046456;28;20501;-78
2022/03/25 00:59:16;;;;;;;22.90;10.32;;;3.10;99.90;;;;;;5061767;28;20075;-78
2022/03/25 01:01:42;;;;;;;24.42;9.00;;;3.00;99.90;;;;;;5046249;28;20044;-78
2022/03/25 01:04:08;;;;;;;21.17;8.75;;;3.10;99.90;;;;;;5062899;28;20366;-79
2022/03/25 01:06:35;;;;;;;24.67;9.93;;;3.10;99.90;;;;;;5047388;28;20040;-79
2022/03/25 01:09:05;;;;;;;19.38;8.65;;;3.10;99.90;;;;;;5062959;28;20024;-79
2022/03/25 01:11:31;;;;;;;20.05;9.00;;;3.00;99.90;;;;;;5047802;28;20025;-79
2022/03/25 01:13:58;;;;;;;27.50;8.25;;;2.90;99.90;;;;;;5047438;28;20368;-78
2022/03/25 01:16:25;;;;;;;27.85;9.30;;;2.80;99.90;;;;;;5046378;28;20512;-78
2022/03/25 01:18:50;;;;;;;21.50;9.40;;;2.80;99.90;;;;;;5048528;28;20016;-78
2022/03/25 01:21:17;;;;;;;29.67;8.90;;;2.70;99.90;;;;;;5067521;28;20025;-79
2022/03/25 01:23:44;;;;;;;22.75;8.73;;;2.60;99.90;;;;;;5049285;28;20112;-78
2022/03/25 01:26:10;;;;;;;22.85;8.60;;;2.50;99.90;;;;;;5065443;28;20158;-79
2022/03/25 01:28:36;;;;;;;22.00;9.05;;;2.40;99.90;;;;;;5065999;28;20127;-78
2022/03/25 01:31:03;;;;;;;20.70;9.45;;;2.40;99.90;;;;;;5067364;28;20307;-78
2022/03/25 01:33:30;;;;;;;24.98;9.57;;;2.40;99.90;;;;;;5066173;28;20093;-78
2022/03/25 01:35:56;;;;;;;20.85;8.45;;;2.50;99.90;;;;;;5048818;28;20028;-79
2022/03/25 01:38:22;;;;;;;24.33;9.20;;;2.50;99.90;;;;;;5065660;28;20127;-78
2022/03/25 01:40:48;;;;;;;22.27;8.80;;;2.60;99.90;;;;;;5067941;28;20036;-78
2022/03/25 01:43:14;;;;;;;22.40;9.70;;;2.60;99.90;;;;;;5067283;28;20025;-78
2022/03/25 01:45:40;;;;;;;25.95;9.73;;;2.70;99.90;;;;;;5067227;28;20254;-78
2022/03/25 01:48:11;;;;;;;16.40;7.35;;;2.60;99.90;;;;;;5067723;28;20029;-79
2022/03/25 01:50:39;;;;;;;24.65;9.15;;;2.50;99.90;;;;;;5067165;28;20103;-79
2022/03/25 01:53:18;;;;;;;20.67;8.70;;;2.40;99.90;;;;;;5048940;28;20086;-78
2022/03/25 01:55:48;;;;;;;19.85;8.25;;;2.20;99.90;;;;;;5065154;28;20507;-78
2022/03/25 01:58:14;;;;;;;23.08;10.13;;;2.10;99.90;;;;;;5067320;28;20016;-78
2022/03/25 02:00:40;;;;;;;21.88;8.48;;;2.00;99.90;;;;;;5048893;28;20154;-78
2022/03/25 02:03:06;;;;;;;22.90;9.25;;;1.90;99.90;;;;;;5065519;28;20031;-78
2022/03/25 02:05:32;;;;;;;25.42;10.60;;;2.00;99.90;;;;;;5066991;28;20013;-78
2022/03/25 02:07:57;;;;;;;20.02;8.73;;;2.00;99.90;;;;;;5066211;28;20021;-78
2022/03/25 02:10:23;;;;;;;26.90;9.55;;;2.00;99.90;;;;;;5066780;28;20021;-78
2022/03/25 02:12:49;;;;;;;25.55;9.38;;;2.10;99.90;;;;;;5065320;28;20033;-78
2022/03/25 02:15:15;;;;;;;25.25;9.68;;;2.10;99.90;;;;;;5066655;28;20025;-78
2022/03/25 02:17:41;;;;;;;19.70;8.25;;;2.20;99.90;;;;;;5066475;28;20496;-78
2022/03/25 02:20:08;;;;;;;20.55;8.55;;;2.20;99.90;;;;;;5045425;28;20396;-78
2022/03/25 02:22:39;;;;;;;23.13;9.65;;;2.10;99.90;;;;;;5045424;28;20025;-78
2022/03/25 02:25:08;;;;;;;20.38;9.32;;;2.00;99.90;;;;;;5044757;28;20083;-78
2022/03/25 02:27:35;;;;;;;;;;;1.90;99.90;;;;;;5047150;28;20098;-78
2022/03/25 02:30:02;;;;;;;24.13;9.82;;;1.80;99.90;;;;;;5046147;28;19908;-78
2022/03/25 02:32:28;;;;;;;24.63;9.75;;;1.60;99.90;;;;;;5062069;28;20028;-78
2022/03/25 02:34:54;;;;;;;24.95;10.77;;;1.50;99.90;;;;;;5045453;28;20493;-78
2022/03/25 02:37:20;;;;;;;25.98;9.65;;;1.60;99.90;;;;;;5045011;28;20072;-78
2022/03/25 02:39:46;;;;;;;21.40;9.32;;;1.60;99.90;;;;;;5045033;28;20075;-78
2022/03/25 02:42:12;;;;;;;25.92;9.70;;;1.40;99.90;;;;;;5061926;28;20033;-78
2022/03/25 02:44:37;;;;;;;25.98;9.45;;;1.40;99.90;;;;;;5046450;28;20032;-78
2022/03/25 02:47:04;;;;;;;21.50;9.02;;;1.40;99.90;;;;;;5044691;28;20067;-78
2022/03/25 02:49:29;;;;;;;18.13;8.43;;;1.30;99.90;;;;;;5046506;28;20033;-79
2022/03/25 02:51:55;;;;;;;17.90;8.77;;;1.40;99.90;;;;;;5046065;28;20025;-79
2022/03/25 02:54:21;;;;;;;27.60;9.80;;;1.40;99.90;;;;;;5046256;28;20021;-78
2022/03/25 02:56:46;;;;;;;31.30;10.75;;;1.60;99.90;;;;;;5046352;28;20044;-78
2022/03/25 02:59:12;;;;;;;24.95;9.98;;;1.60;99.90;;;;;;5044905;28;20485;-78
2022/03/25 03:01:38;;;;;;;36.30;10.98;;;1.60;99.90;;;;;;5044699;28;20041;-78
2022/03/25 03:04:03;;;;;;;31.67;10.35;;;1.60;99.90;;;;;;5061508;28;20493;-78
2022/03/25 03:06:29;;;;;;;23.52;11.35;;;1.50;99.90;;;;;;5046164;28;20492;-78
2022/03/25 03:08:56;;;;;;;25.08;9.38;;;1.50;99.90;;;;;;5061472;28;20052;-78
2022/03/25 03:11:23;;;;;;;25.52;10.57;;;1.50;99.90;;;;;;5045942;28;20032;-78
2022/03/25 03:13:49;;;;;;;24.55;9.50;;;1.60;99.90;;;;;;5061875;28;20512;-78
2022/03/25 03:16:15;;;;;;;27.02;10.77;;;1.50;99.90;;;;;;5045593;28;20041;-78
2022/03/25 03:18:40;;;;;;;24.15;9.95;;;1.50;99.90;;;;;;5047957;28;20028;-78
2022/03/25 03:21:06;;;;;;;21.45;9.25;;;1.30;99.90;;;;;;5064650;28;20491;-79
2022/03/25 03:23:32;;;;;;;25.65;9.05;;;1.20;99.90;;;;;;5065845;28;20404;-78
2022/03/25 03:25:58;;;;;;;23.10;9.68;;;1.10;99.90;;;;;;5064640;28;20024;-78
2022/03/25 03:28:23;;;;;;;22.67;9.32;;;1.00;99.90;;;;;;5066141;28;20519;-78
2022/03/25 03:30:49;;;;;;;26.42;10.43;;;0.90;99.90;;;;;;5048221;28;20028;-79
2022/03/25 03:33:15;;;;;;;23.55;9.77;;;0.70;99.90;;;;;;5034607;28;20461;-78
2022/03/25 03:35:41;;;;;;;25.92;10.07;;;0.70;99.90;;;;;;5030284;28;20450;-78
2022/03/25 03:38:07;;;;;;;29.63;11.10;;;1.10;99.90;;;;;;5047766;28;20025;-78
2022/03/25 03:40:32;;;;;;;24.52;11.25;;;1.40;99.90;;;;;;5065956;28;20067;-78
2022/03/25 03:42:58;;;;;;;34.00;12.18;;;1.50;99.90;;;;;;5050649;28;20035;-78
2022/03/25 03:45:24;;;;;;;23.38;9.93;;;1.60;99.90;;;;;;5069511;28;20023;-78
2022/03/25 03:47:50;;;;;;;26.73;10.32;;;1.50;99.90;;;;;;5051260;28;20032;-78
2022/03/25 03:50:16;;;;;;;29.48;11.48;;;1.40;99.90;;;;;;5051007;28;20107;-79
2022/03/25 03:52:43;;;;;;;22.88;10.43;;;1.20;99.90;;;;;;5063604;28;20195;-78
2022/03/25 03:55:09;;;;;;;29.55;11.52;;;1.20;99.90;;;;;;5048886;28;20029;-79
2022/03/25 03:57:36;;;;;;;26.75;10.10;;;1.20;99.90;;;;;;5048956;28;20459;-77
2022/03/25 04:00:10;;;;;;;28.88;10.15;;;1.10;99.90;;;;;;5049526;28;20025;-78
2022/03/25 04:02:36;;;;;;;21.55;9.98;;;0.90;99.90;;;;;;5031750;28;20505;-78
2022/03/25 04:05:02;;;;;;;23.10;9.98;;;0.80;99.90;;;;;;5049045;28;20180;-78
2022/03/25 04:07:28;;;;;;;22.85;9.75;;;0.80;99.90;;;;;;5048884;28;20026;-78
2022/03/25 04:09:53;;;;;;;33.17;11.52;;;0.70;99.90;;;;;;5048145;28;20028;-78
2022/03/25 04:12:19;;;;;;;28.60;9.77;;;0.60;99.90;;;;;;5048700;28;20525;-79
2022/03/25 04:14:45;;;;;;;26.10;11.88;;;0.50;99.90;;;;;;5048921;28;20367;-78
2022/03/25 04:17:11;;;;;;;23.35;9.23;;;0.50;99.90;;;;;;5048653;28;20036;-79
2022/03/25 04:19:37;;;;;;;23.58;9.90;;;0.40;99.90;;;;;;5040575;28;20054;-79
2022/03/25 04:22:03;;;;;;;21.85;9.80;;;0.30;99.90;;;;;;5068627;28;20214;-79
2022/03/25 04:24:29;;;;;;;28.48;10.13;;;0.30;99.90;;;;;;5067675;28;20511;-79
2022/03/25 04:26:54;;;;;;;22.55;9.82;;;0.20;99.90;;;;;;5066910;28;20040;-79
2022/03/25 04:29:22;;;;;;;23.58;9.77;;;0.10;99.90;;;;;;5051001;28;20028;-79
2022/03/25 04:31:48;;;;;;;23.38;9.77;;;0.20;99.90;;;;;;5050533;28;20039;-78
2022/03/25 04:34:14;;;;;;;20.20;9.57;;;0.20;99.90;;;;;;5050251;28;20025;-79
2022/03/25 04:36:40;;;;;;;27.50;10.40;;;0.30;99.90;;;;;;5066895;28;20032;-78
2022/03/25 04:39:05;;;;;;;25.75;9.88;;;-1.70;99.90;;;;;;5067177;28;20080;-79
2022/03/25 04:41:31;;;;;;;29.42;10.93;;;0.10;99.90;;;;;;5050046;28;20115;-78
2022/03/25 04:43:57;;;;;;;33.58;11.80;;;0.30;99.90;;;;;;5050402;28;20036;-79
2022/03/25 04:46:23;;;;;;;31.33;11.93;;;0.50;99.90;;;;;;5068048;28;20029;-79
2022/03/25 04:48:48;;;;;;;24.15;10.57;;;0.50;99.90;;;;;;5050421;28;20027;-79
2022/03/25 04:51:14;;;;;;;26.20;11.10;;;0.50;99.90;;;;;;5068359;28;20392;-79
2022/03/25 04:53:40;;;;;;;24.67;9.98;;;0.40;99.90;;;;;;5049747;28;20032;-79
2022/03/25 04:56:06;;;;;;;23.52;10.23;;;0.40;99.90;;;;;;5049459;28;20040;-78
2022/03/25 04:58:32;;;;;;;25.15;8.82;;;0.30;99.90;;;;;;5050135;28;20039;-79
2022/03/25 05:00:58;;;;;;;26.25;10.57;;;0.10;99.90;;;;;;5049905;28;20020;-78
2022/03/25 05:03:23;;;;;;;24.67;9.13;;;0.00;99.90;;;;;;5068072;28;20029;-79
2022/03/25 05:05:49;;;;;;;24.75;9.82;;;-0.20;99.90;;;;;;5066735;28;20539;-79
2022/03/25 05:08:16;;;;;;;22.92;9.65;;;-0.30;99.90;;;;;;5067697;28;20029;-79
2022/03/25 05:10:42;;;;;;;30.80;11.52;;;0.10;99.90;;;;;;5068056;28;20028;-79
2022/03/25 05:13:11;;;;;;;25.80;10.82;;;-0.40;99.90;;;;;;5068260;28;20027;-80
2022/03/25 05:15:37;;;;;;;26.15;11.07;;;-0.30;99.90;;;;;;5067805;28;20102;-79
2022/03/25 05:18:03;;;;;;;24.90;10.60;;;-0.40;99.90;;;;;;5049907;28;20035;-79
2022/03/25 05:20:28;;;;;;;30.77;10.63;;;-0.40;99.90;;;;;;5067737;28;20456;-79
2022/03/25 05:22:54;;;;;;;24.98;9.85;;;-0.10;99.90;;;;;;5069398;28;20047;-78
2022/03/25 05:25:20;;;;;;;22.63;10.10;;;-0.10;99.90;;;;;;5066604;28;20029;-79
2022/03/25 05:27:51;;;;;;;27.40;12.27;;;-0.30;99.90;;;;;;5066087;28;20051;-79
2022/03/25 05:30:24;;;;;;;27.83;11.18;;;-0.20;99.90;;;;;;5066456;28;20029;-79
2022/03/25 05:32:50;;;;;;;28.33;11.32;;;-0.10;99.90;;;;;;5066563;28;20028;-79
2022/03/25 05:35:17;;;;;;;28.10;10.82;;;-0.10;99.90;;;;;;5067830;28;20020;-79
2022/03/25 05:37:43;;;;;;;25.92;11.63;;;-0.10;99.90;;;;;;5067231;28;20463;-79
2022/03/25 05:40:10;;;;;;;26.85;11.55;;;0.00;99.90;;;;;;5066355;28;20476;-79
2022/03/25 05:42:36;;;;;;;24.05;10.60;;;0.00;99.90;;;;;;5067545;28;20554;-79
2022/03/25 05:45:05;;;;;;;22.90;9.90;;;0.00;99.90;;;;;;5066623;28;20024;-79
2022/03/25 05:47:31;;;;;;;25.85;12.43;;;0.00;99.90;;;;;;5065923;28;20415;-79
2022/03/25 05:49:57;;;;;;;25.83;9.95;;;0.10;99.90;;;;;;5067709;28;20035;-79
2022/03/25 05:52:23;;;;;;;25.58;9.88;;;0.10;99.90;;;;;;5066349;28;20020;-78
2022/03/25 05:54:49;;;;;;;22.52;9.73;;;0.30;99.90;;;;;;5067871;28;20536;-79
2022/03/25 05:57:15;;;;;;;28.15;11.27;;;0.30;99.90;;;;;;5067823;28;20033;-79
2022/03/25 05:59:40;;;;;;;23.05;9.80;;;0.40;99.90;;;;;;5065395;28;20456;-79
2022/03/25 06:02:08;;;;;;;23.42;10.70;;;0.50;99.90;;;;;;5049207;28;20028;-79
2022/03/25 06:04:34;;;;;;;24.67;10.10;;;0.50;99.90;;;;;;5065685;28;20115;-79
2022/03/25 06:07:00;;;;;;;23.55;9.82;;;0.50;99.90;;;;;;5048756;28;20029;-79
2022/03/25 06:09:26;;;;;;;27.73;10.20;;;0.50;99.90;;;;;;5068776;28;20027;-79
2022/03/25 06:11:51;;;;;;;22.20;10.13;;;0.50;99.90;;;;;;5059952;28;20050;-79
2022/03/25 06:14:17;;;;;;;32.72;11.82;;;0.60;99.90;;;;;;5075810;28;20024;-78
2022/03/25 06:16:44;;;;;;;22.83;9.20;;;0.90;99.90;;;;;;5076539;28;20040;-79
2022/03/25 06:19:10;;;;;;;23.25;10.40;;;1.10;99.90;;;;;;5071926;28;20403;-81
2022/03/25 06:21:36;;;;;;;22.27;9.93;;;1.30;99.90;;;;;;5050989;28;20029;-80
2022/03/25 06:24:01;;;;;;;26.45;10.30;;;1.70;99.90;;;;;;5063767;28;20024;-80
2022/03/25 06:26:27;;;;;;;25.20;11.70;;;2.10;99.90;;;;;;5048661;28;20029;-80
2022/03/25 06:28:54;;;;;;;26.92;10.05;;;2.50;99.90;;;;;;5049129;28;20417;-80
2022/03/25 06:31:20;;;;;;;23.63;9.90;;;2.80;99.90;;;;;;5064404;28;20064;-80
2022/03/25 06:33:45;;;;;;;22.02;10.23;;;3.10;99.90;;;;;;5052258;28;20332;-80
2022/03/25 06:36:14;;;;;;;25.13;9.80;;;3.30;99.90;;;;;;5055922;28;20108;-80
2022/03/25 06:38:43;;;;;;;24.52;11.32;;;3.30;99.90;;;;;;5050135;28;20029;-78
2022/03/25 06:41:09;;;;;;;23.33;10.88;;;2.10;99.90;;;;;;5054037;28;20458;-79
2022/03/25 06:43:36;;;;;;;26.50;10.30;;;3.70;99.90;;;;;;5045268;28;20033;-80
2022/03/25 06:46:02;;;;;;;22.52;10.18;;;3.70;99.90;;;;;;5043761;28;20021;-80
2022/03/25 06:48:28;;;;;;;23.63;10.95;;;3.90;99.90;;;;;;5045377;28;20179;-80
2022/03/25 06:50:54;;;;;;;28.70;11.27;;;4.00;99.90;;;;;;5061270;28;20573;-81
2022/03/25 06:53:20;;;;;;;24.35;10.95;;;4.10;99.90;;;;;;5046028;28;20033;-81
2022/03/25 06:55:46;;;;;;;24.52;11.02;;;4.30;99.90;;;;;;5059747;28;20051;-80
2022/03/25 06:58:12;;;;;;;25.00;10.48;;;4.30;99.90;;;;;;5061395;28;20033;-79
2022/03/25 07:00:38;;;;;;;24.00;10.88;;;4.40;99.90;;;;;;5049630;28;20496;-81
2022/03/25 07:03:04;;;;;;;22.48;11.52;;;4.50;99.90;;;;;;5063701;28;20518;-81
2022/03/25 07:05:31;;;;;;;28.48;12.15;;;4.60;99.90;;;;;;5048086;28;20021;-80
2022/03/25 07:07:58;;;;;;;27.90;10.70;;;4.70;99.90;;;;;;5047276;28;20473;-80
2022/03/25 07:10:26;;;;;;;32.53;13.75;;;4.90;99.90;;;;;;5062949;28;20065;-80
2022/03/25 07:12:53;;;;;;;36.67;17.77;;;5.00;99.90;;;;;;5062775;28;20024;-81
2022/03/25 07:15:22;;;;;;;45.88;19.67;;;5.20;99.90;;;;;;5047688;28;20052;-80
2022/03/25 07:17:48;;;;;;;47.50;17.27;;;5.30;99.90;;;;;;5048914;28;20041;-80
2022/03/25 07:20:15;;;;;;;35.92;16.45;;;5.50;99.90;;;;;;5057348;28;20385;-79
2022/03/25 07:22:46;;;;;;;37.90;13.95;;;5.70;99.90;;;;;;5052025;28;20029;-79
2022/03/25 07:25:13;;;;;;;36.92;15.13;;;5.80;99.90;;;;;;5052207;28;20110;-82
2022/03/25 07:27:40;;;;;;;49.88;21.42;;;6.00;99.90;;;;;;5071222;28;20453;-79
2022/03/25 07:30:06;;;;;;;38.17;16.55;;;6.10;99.90;;;;;;5069856;28;20029;-78
2022/03/25 07:32:32;;;;;;;54.70;20.73;;;6.30;99.90;;;;;;5069277;28;20063;-79
2022/03/25 07:34:58;;;;;;;50.60;20.25;;;6.50;99.90;;;;;;5070107;28;20071;-77
2022/03/25 07:37:23;;;;;;;48.67;19.95;;;6.80;99.90;;;;;;5051971;28;20040;-80
2022/03/25 07:39:49;;;;;;;37.83;15.40;;;7.00;99.90;;;;;;5071532;28;20016;-80
2022/03/25 07:42:15;;;;;;;34.92;14.63;;;7.10;99.90;;;;;;5074508;28;20063;-82
2022/03/25 07:44:41;;;;;;;29.38;11.93;;;7.20;99.90;;;;;;5078488;28;20530;-78
2022/03/25 07:47:07;;;;;;;26.45;11.65;;;7.30;99.90;;;;;;5053388;28;20176;-80
2022/03/25 07:49:38;;;;;;;31.15;13.23;;;7.50;99.90;;;;;;5083991;28;20231;-80
2022/03/25 07:52:04;;;;;;;28.70;11.23;;;7.60;99.90;;;;;;5074572;28;20036;-79
2022/03/25 07:54:53;;;;;;;28.80;12.23;;;9.30;99.90;;;;;;5086473;28;20040;-81
2022/03/25 07:57:19;;;;;;;30.70;13.18;;;7.90;99.70;;;;;;5068702;28;20048;-80
2022/03/25 07:59:47;;;;;;;27.58;12.15;;;8.20;97.80;;;;;;5075238;28;20029;-79
2022/03/25 08:02:14;;;;;;;27.50;12.40;;;8.40;98.10;;;;;;5074429;28;20036;-79
2022/03/25 08:04:40;;;;;;;25.30;11.25;;;8.60;97.70;;;;;;5074660;28;20052;-80
2022/03/25 08:07:05;;;;;;;29.27;12.52;;;8.60;96.60;;;;;;5072543;28;20055;-80
2022/03/25 08:09:31;;;;;;;31.10;12.32;;;8.80;95.40;;;;;;5067901;28;20111;-78
2022/03/25 08:11:57;;;;;;;29.35;13.07;;;9.10;92.60;;;;;;5068192;28;20060;-80
2022/03/25 08:14:22;;;;;;;23.80;11.32;;;9.50;92.20;;;;;;5068215;28;20587;-79
2022/03/25 08:16:48;;;;;;;29.20;11.35;;;9.70;92.00;;;;;;5050735;28;20109;-81
2022/03/25 08:19:15;;;;;;;23.38;11.02;;;9.70;90.90;;;;;;5050466;28;20029;-82
2022/03/25 08:21:40;;;;;;;28.83;12.38;;;9.70;91.60;;;;;;5051602;28;20123;-81
2022/03/25 08:29:36;;;;;;;28.98;11.55;;;9.90;90.50;;;;;;5071543;28;20094;-82
2022/03/25 08:32:03;;;;;;;33.47;12.07;;;10.10;91.10;;;;;;5072662;28;20028;-82
2022/03/25 08:34:28;;;;;;;30.83;11.27;;;10.20;87.90;;;;;;5070683;28;20390;-82
2022/03/25 08:36:54;;;;;;;30.75;13.50;;;10.50;85.10;;;;;;5071345;28;20123;-82
2022/03/25 08:39:22;;;;;;;24.63;11.45;;;10.70;83.20;;;;;;5073087;28;20115;-81
2022/03/25 08:41:48;;;;;;;29.80;12.68;;;10.90;84.30;;;;;;5079604;28;20020;-81
2022/03/25 08:44:23;;;;;;;23.23;12.20;;;10.70;86.00;;;;;;5084254;28;20066;-83
2022/03/25 08:46:50;;;;;;;30.45;13.93;;;11.00;82.40;;;;;;5082418;28;20119;-80
2022/03/25 08:49:18;;;;;;;27.45;13.00;;;10.90;82.70;;;;;;5074964;28;20024;-80
2022/03/25 08:51:44;;;;;;;32.22;13.82;;;11.10;82.80;;;;;;5053183;28;20448;-81
2022/03/25 08:54:09;;;;;;;25.30;12.57;;;11.20;82.50;;;;;;5069180;28;20052;-80
2022/03/25 08:56:36;;;;;;;30.15;12.85;;;11.20;83.80;;;;;;5071381;28;20042;-78
2022/03/25 08:59:02;;;;;;;36.90;13.80;;;11.50;79.40;;;;;;5072408;28;20017;-79
2022/03/25 09:01:28;;;;;;;32.17;13.60;;;11.70;75.90;;;;;;5074707;28;20049;-79
2022/03/25 09:04:12;;;;;;;34.42;14.30;;;11.70;77.70;;;;;;5078533;28;20028;-85
2022/03/25 09:06:46;;;;;;;33.92;14.00;;;11.70;74.40;;;;;;5073919;28;20468;-79
2022/03/25 09:09:12;;;;;;;33.38;13.18;;;11.80;73.00;;;;;;5075311;28;20025;-80
2022/03/25 09:11:38;;;;;;;33.80;14.27;;;11.80;74.20;;;;;;5072310;28;20115;-80
2022/03/25 09:14:05;;;;;;;32.05;13.18;;;11.60;72.40;;;;;;5072801;28;20032;-83
2022/03/25 09:16:31;;;;;;;33.17;14.20;;;11.60;73.10;;;;;;5072703;28;20033;-81
2022/03/25 09:19:00;;;;;;;35.63;15.23;;;11.60;73.40;;;;;;5072802;28;20028;-82
2022/03/25 09:21:26;;;;;;;30.88;13.80;;;11.80;73.10;;;;;;5070140;28;20027;-80
2022/03/25 09:24:08;;;;;;;30.15;12.63;;;11.90;72.60;;;;;;5069496;28;20024;-80
2022/03/25 09:26:34;;;;;;;39.58;14.95;;;12.00;73.00;;;;;;5052869;28;20024;-82
2022/03/25 09:29:00;;;;;;;28.42;13.93;;;12.10;70.70;;;;;;5072340;28;20039;-78
2022/03/25 09:31:29;;;;;;;30.67;12.25;;;12.40;71.60;;;;;;5077277;28;20028;-80
2022/03/25 09:35:08;;;;;;;35.33;14.32;;;12.50;70.80;;;;;;5072097;28;20029;-80
2022/03/25 09:36:40;;;;;;;31.77;14.98;;;12.70;70.00;;;;;;5074881;28;20045;-79
2022/03/25 09:39:12;;;;;;;29.63;13.48;;;12.70;69.70;;;;;;5077082;28;20044;-84
2022/03/25 09:41:38;;;;;;;36.55;15.60;;;12.60;68.50;;;;;;5070019;28;20024;-80
2022/03/25 09:44:07;;;;;;;33.97;13.88;;;12.70;67.40;;;;;;5069653;28;20027;-79
2022/03/25 09:46:40;;;;;;;35.50;14.35;;;12.70;67.60;;;;;;5054751;28;20029;-81
2022/03/25 09:49:06;;;;;;;29.27;13.05;;;12.80;67.90;;;;;;5071106;28;20042;-78
2022/03/25 09:51:38;;;;;;;35.75;15.57;;;12.80;67.00;;;;;;5066459;28;20037;-78
2022/03/25 09:54:06;;;;;;;32.17;14.48;;;13.00;66.20;;;;;;5067731;28;20070;-78
2022/03/25 09:56:32;;;;;;;40.63;16.25;;;13.00;64.70;;;;;;5070254;28;20210;-80
2022/03/25 09:58:58;;;;;;;33.95;14.05;;;13.10;65.10;;;;;;5068849;28;20056;-79
2022/03/25 10:01:31;;;;;;;38.85;14.32;;;13.30;66.40;;;;;;5066811;28;20024;-82
2022/03/25 10:03:57;;;;;;;31.10;14.02;;;13.40;65.20;;;;;;5077698;28;20024;-78
2022/03/25 10:06:24;;;;;;;35.58;13.90;;;13.30;64.40;;;;;;5050925;28;20027;-79
2022/03/25 10:09:28;;;;;;;36.53;15.32;;;13.30;65.20;;;;;;5055648;28;20056;-82
2022/03/25 10:11:53;;;;;;;27.40;13.05;;;13.30;63.30;;;;;;5034916;28;20039;-82
2022/03/25 10:14:27;;;;;;;34.03;14.25;;;13.40;61.30;;;;;;5052053;28;20254;-80
2022/03/25 10:16:54;;;;;;;35.55;14.45;;;13.30;62.80;;;;;;5070906;28;20155;-82
2022/03/25 10:19:22;;;;;;;31.23;13.65;;;13.30;63.50;;;;;;5068286;28;20055;-81
2022/03/25 10:21:54;;;;;;;29.65;14.38;;;13.50;64.80;;;;;;5051466;28;20433;-80
2022/03/25 10:24:46;;;;;;;30.42;14.55;;;13.60;64.30;;;;;;5070300;28;20388;-81
2022/03/25 10:27:13;;;;;;;30.67;13.05;;;13.80;60.90;;;;;;5066393;28;20398;-81
2022/03/25 10:29:39;;;;;;;33.45;14.27;;;13.90;62.60;;;;;;5029982;28;20025;-80
2022/03/25 10:32:10;;;;;;;30.33;13.25;;;13.90;61.80;;;;;;5031954;28;20032;-81
2022/03/25 10:34:38;;;;;;;26.90;13.32;;;14.10;61.10;;;;;;5032772;28;20026;-80
2022/03/25 10:37:07;;;;;;;35.60;14.27;;;14.20;63.20;;;;;;5063661;28;20119;-81
2022/03/25 10:39:33;;;;;;;32.17;13.93;;;14.30;60.50;;;;;;5050758;28;20028;-80
2022/03/25 10:42:01;;;;;;;33.92;14.65;;;14.40;61.30;;;;;;5068467;28;20488;-80
2022/03/25 10:44:38;;;;;;;30.75;13.02;;;14.50;61.20;;;;;;5068940;28;20017;-80
2022/03/25 10:47:16;;;;;;;32.72;13.52;;;14.60;59.30;;;;;;5051113;28;20033;-81
2022/03/25 10:49:47;;;;;;;27.42;12.15;;;14.60;58.00;;;;;;5050906;28;20029;-80
2022/03/25 10:52:34;;;;;;;28.90;13.73;;;14.70;58.80;;;;;;5054265;28;20029;-81
2022/03/25 10:55:23;;;;;;;29.27;12.80;;;14.60;57.60;;;;;;5072811;28;20401;-81
2022/03/25 10:57:54;;;;;;;39.33;15.45;;;14.70;57.30;;;;;;5073137;28;20040;-80
2022/03/25 11:00:24;;;;;;;28.88;13.32;;;14.60;56.50;;;;;;5074030;28;20377;-80
2022/03/25 11:02:50;;;;;;;27.90;13.32;;;14.90;59.10;;;;;;5056784;28;20055;-80
2022/03/25 11:05:16;;;;;;;26.08;12.45;;;14.80;57.40;;;;;;5058410;28;20251;-80
2022/03/25 11:07:44;;;;;;;25.73;12.05;;;14.70;56.50;;;;;;5054646;28;20099;-79
2022/03/25 11:10:15;;;;;;;30.98;12.77;;;14.90;56.90;;;;;;5067788;28;20055;-80
2022/03/25 11:12:50;;;;;;;34.50;14.43;;;15.00;56.80;;;;;;5050335;28;20024;-80
2022/03/25 11:15:18;;;;;;;29.02;12.07;;;15.00;56.50;;;;;;5053543;28;20024;-80
2022/03/25 11:17:44;;;;;;;30.27;13.35;;;15.00;56.20;;;;;;5053669;28;20480;-80
2022/03/25 11:20:16;;;;;;;36.90;13.73;;;15.00;56.40;;;;;;5072239;28;20017;-80
2022/03/25 11:22:49;;;;;;;31.13;13.77;;;15.10;56.00;;;;;;5053727;28;20484;-80
2022/03/25 11:25:21;;;;;;;32.30;13.65;;;15.20;56.10;;;;;;5073106;28;20028;-80
2022/03/25 11:27:58;;;;;;;28.85;13.50;;;15.30;57.60;;;;;;5073403;28;20043;-80
2022/03/25 11:30:23;;;;;;;29.08;12.68;;;15.20;56.40;;;;;;5055780;28;20035;-79
2022/03/25 11:33:12;;;;;;;29.17;12.52;;;15.40;57.20;;;;;;5055878;28;20017;-80
2022/03/25 11:35:41;;;;;;;27.42;13.23;;;15.40;56.80;;;;;;5052254;28;20060;-80
2022/03/25 11:38:12;;;;;;;28.17;12.35;;;15.30;56.10;;;;;;5053853;28;20040;-80
2022/03/25 11:40:40;;;;;;;26.08;12.75;;;15.40;56.50;;;;;;5046878;28;20489;-80
2022/03/25 11:43:31;;;;;;;32.90;12.82;;;15.50;55.40;;;;;;5072519;28;20579;-81
2022/03/25 11:46:00;;;;;;;27.40;11.65;;;15.70;55.20;;;;;;5053859;28;20037;-80
2022/03/25 11:48:25;;;;;;;25.77;11.65;;;15.90;55.70;;;;;;5049064;28;20055;-80
2022/03/25 11:50:54;;;;;;;32.22;13.88;;;15.90;54.00;;;;;;5069740;28;20024;-80
2022/03/25 11:53:22;;;;;;;28.85;13.32;;;14.50;54.90;;;;;;5068020;28;20552;-82
2022/03/25 11:56:01;;;;;;;33.42;13.57;;;15.70;56.80;;;;;;5062727;28;20025;-81
2022/03/25 11:58:38;;;;;;;34.05;13.02;;;16.00;56.10;;;;;;5047439;28;20052;-81
2022/03/25 12:01:17;;;;;;;30.90;13.70;;;16.00;55.20;;;;;;5071418;28;20033;-81
2022/03/25 12:03:44;;;;;;;38.45;15.75;;;16.20;54.80;;;;;;5077635;28;20021;-83
2022/03/25 12:06:11;;;;;;;33.20;16.48;;;16.80;54.90;;;;;;5077927;28;20221;-84
2022/03/25 12:08:39;;;;;;;34.60;15.25;;;17.30;53.90;;;;;;5063433;28;20548;-83
2022/03/25 12:11:10;;;;;;;31.38;15.00;;;17.80;53.50;;;;;;5070773;28;20044;-82
2022/03/25 12:13:54;;;;;;;43.05;15.23;;;17.70;51.60;;;;;;5038648;28;20476;-86
2022/03/25 12:16:45;;;;;;;32.60;14.98;;;18.40;50.50;;;;;;5036166;28;20045;-84
2022/03/25 12:19:26;;;;;;;32.17;15.18;;;18.60;48.10;;;;;;5049595;28;20327;-83
2022/03/25 12:22:00;;;;;;;29.90;14.00;;;18.60;48.20;;;;;;5050578;28;20080;-87
2022/03/25 12:24:27;;;;;;;30.75;15.32;;;19.10;48.00;;;;;;5063708;28;20053;-88
2022/03/25 12:27:02;;;;;;;31.67;14.38;;;19.60;47.90;;;;;;5068818;28;20036;-86
2022/03/25 12:29:33;;;;;;;30.58;15.10;;;19.30;48.20;;;;;;5058263;28;20035;-85
2022/03/25 12:32:00;;;;;;;30.73;15.93;;;19.70;47.80;;;;;;5065287;28;20528;-86
2022/03/25 12:34:59;;;;;;;28.02;14.85;;;19.50;47.40;;;;;;5079765;28;20032;-82
2022/03/25 12:37:40;;;;;;;31.42;14.80;;;19.60;47.40;;;;;;5062218;28;20052;-89
2022/03/25 12:40:14;;;;;;;30.70;14.20;;;20.20;47.80;;;;;;5060403;28;20039;-89
2022/03/25 12:42:41;;;;;;;27.58;13.30;;;20.10;45.50;;;;;;5064322;28;20020;-85
2022/03/25 12:45:08;;;;;;;25.25;11.93;;;20.50;46.00;;;;;;5080708;28;20027;-86